createdAt,value
2018-06-09T00:00:44.645Z,952.63
2018-06-09T00:01:44.619Z,952.59
2018-06-09T00:02:44.655Z,952.58
2018-06-09T00:03:44.670Z,952.57
2018-06-09T00:04:44.691Z,952.56
2018-06-09T00:05:44.716Z,952.58
2018-06-09T00:06:44.741Z,952.63
2018-06-09T00:07:44.767Z,952.63
2018-06-09T00:08:44.789Z,952.62
2018-06-09T00:09:44.812Z,952.67
2018-06-09T00:10:44.839Z,952.68
2018-06-09T00:11:44.861Z,952.68
2018-06-09T00:12:44.885Z,952.72
2018-06-09T00:13:44.911Z,952.69
2018-06-09T00:14:44.935Z,952.66
2018-06-09T00:15:45.010Z,952.65
2018-06-09T00:16:44.986Z,952.64
2018-06-09T00:17:45.011Z,952.61
2018-06-09T00:18:45.035Z,952.59
2018-06-09T00:19:45.058Z,952.56
2018-06-09T00:20:45.083Z,952.54
2018-06-09T00:21:45.108Z,952.57
2018-06-09T00:22:45.132Z,952.54
2018-06-09T00:23:45.156Z,952.57
2018-06-09T00:24:45.180Z,952.58
2018-06-09T00:25:45.204Z,952.6
2018-06-09T00:26:45.228Z,952.58
2018-06-09T00:27:45.254Z,952.6
2018-06-09T00:28:45.277Z,952.64
2018-06-09T00:29:45.301Z,952.64
2018-06-09T00:30:45.376Z,952.64
2018-06-09T00:31:45.350Z,952.63
2018-06-09T00:32:45.374Z,952.68
2018-06-09T00:33:45.405Z,952.71
2018-06-09T00:34:45.425Z,952.67
2018-06-09T00:35:45.448Z,952.72
2018-06-09T00:36:45.472Z,952.73
2018-06-09T00:37:45.496Z,952.74
2018-06-09T00:38:45.521Z,952.77
2018-06-09T00:39:45.545Z,952.73
2018-06-09T00:40:45.569Z,952.77
2018-06-09T00:41:45.595Z,952.74
2018-06-09T00:42:45.621Z,952.77
2018-06-09T00:43:45.644Z,952.72
2018-06-09T00:44:45.669Z,952.76
2018-06-09T00:45:45.844Z,952.76
2018-06-09T00:46:45.719Z,952.77
2018-06-09T00:47:45.742Z,952.79
2018-06-09T00:48:45.767Z,952.82
2018-06-09T00:49:45.792Z,952.88
2018-06-09T00:50:45.817Z,952.92
2018-06-09T00:51:45.842Z,952.97
2018-06-09T00:52:45.872Z,952.93
2018-06-09T00:53:45.892Z,952.96
2018-06-09T00:54:45.917Z,952.89
2018-06-09T00:55:45.942Z,952.92
2018-06-09T00:56:45.966Z,952.91
2018-06-09T00:57:45.991Z,952.9
2018-06-09T00:58:46.015Z,952.87
2018-06-09T00:59:46.040Z,952.85
2018-06-09T01:00:46.114Z,952.83
2018-06-09T01:01:46.089Z,952.77
2018-06-09T01:02:46.114Z,952.74
2018-06-09T01:03:46.139Z,952.74
2018-06-09T01:04:46.163Z,952.75
2018-06-09T01:05:46.187Z,952.69
2018-06-09T01:06:46.213Z,952.71
2018-06-09T01:07:46.238Z,952.67
2018-06-09T01:08:46.263Z,952.66
2018-06-09T01:09:46.286Z,952.6
2018-06-09T01:10:46.313Z,952.65
2018-06-09T01:11:46.336Z,952.66
2018-06-09T01:12:46.361Z,952.64
2018-06-09T01:13:46.384Z,952.63
2018-06-09T01:14:46.411Z,952.63
2018-06-09T01:15:46.486Z,952.6
2018-06-09T01:16:46.460Z,952.56
2018-06-09T01:17:46.484Z,952.55
2018-06-09T01:18:46.510Z,952.57
2018-06-09T01:19:46.533Z,952.53
2018-06-09T01:20:46.562Z,952.52
2018-06-09T01:21:46.583Z,952.5
2018-06-09T01:22:46.607Z,952.51
2018-06-09T01:23:46.631Z,952.44
2018-06-09T01:24:46.654Z,952.45
2018-06-09T01:25:46.679Z,952.46
2018-06-09T01:26:46.703Z,952.44
2018-06-09T01:27:46.728Z,952.44
2018-06-09T01:28:46.752Z,952.48
2018-06-09T01:29:46.779Z,952.43
2018-06-09T01:30:46.853Z,952.44
2018-06-09T01:31:46.827Z,952.43
2018-06-09T01:32:46.851Z,952.39
2018-06-09T01:33:46.873Z,952.44
2018-06-09T01:34:46.898Z,952.42
2018-06-09T01:35:46.922Z,952.39
2018-06-09T01:36:46.947Z,952.41
2018-06-09T01:37:46.972Z,952.44
2018-06-09T01:38:46.995Z,952.43
2018-06-09T01:39:47.020Z,952.39
2018-06-09T01:40:47.044Z,952.4
2018-06-09T01:41:47.068Z,952.4
2018-06-09T01:42:47.091Z,952.43
2018-06-09T01:43:47.115Z,952.41
2018-06-09T01:44:47.137Z,952.39
2018-06-09T01:45:47.212Z,952.33
2018-06-09T01:46:47.187Z,952.29
2018-06-09T01:47:47.209Z,952.35
2018-06-09T01:48:47.234Z,952.28
2018-06-09T01:49:47.258Z,952.31
2018-06-09T01:50:47.281Z,952.36
2018-06-09T01:51:47.304Z,952.33
2018-06-09T01:52:47.330Z,952.34
2018-06-09T01:53:47.354Z,952.39
2018-06-09T01:54:47.379Z,952.38
2018-06-09T01:55:47.403Z,952.41
2018-06-09T01:56:47.427Z,952.39
2018-06-09T01:57:47.451Z,952.41
2018-06-09T01:58:47.477Z,952.39
2018-06-09T01:59:47.500Z,952.39
2018-06-09T02:00:47.574Z,952.4
2018-06-09T02:01:47.546Z,952.39
2018-06-09T02:02:47.570Z,952.4
2018-06-09T02:03:47.598Z,952.39
2018-06-09T02:04:47.619Z,952.36
2018-06-09T02:05:47.743Z,952.38
2018-06-09T02:06:47.667Z,952.38
2018-06-09T02:07:47.712Z,952.34
2018-06-09T02:08:47.718Z,952.3
2018-06-09T02:09:47.739Z,952.29
2018-06-09T02:10:47.765Z,952.26
2018-06-09T02:11:47.786Z,952.28
2018-06-09T02:12:47.811Z,952.24
2018-06-09T02:13:47.835Z,952.24
2018-06-09T02:14:47.860Z,952.23
2018-06-09T02:15:47.934Z,952.21
2018-06-09T02:16:47.908Z,952.21
2018-06-09T02:17:47.932Z,952.25
2018-06-09T02:18:47.956Z,952.25
2018-06-09T02:19:47.979Z,952.21
2018-06-09T02:20:48.004Z,952.19
2018-06-09T02:21:48.029Z,952.18
2018-06-09T02:22:48.051Z,952.23
2018-06-09T02:23:48.081Z,952.23
2018-06-09T02:24:48.103Z,952.25
2018-06-09T02:25:48.132Z,952.28
2018-06-09T02:26:48.152Z,952.3
2018-06-09T02:27:48.177Z,952.29
2018-06-09T02:28:48.200Z,952.35
2018-06-09T02:29:48.223Z,952.36
2018-06-09T02:30:48.299Z,952.34
2018-06-09T02:31:48.273Z,952.37
2018-06-09T02:32:48.296Z,952.37
2018-06-09T02:33:48.319Z,952.37
2018-06-09T02:34:48.344Z,952.38
2018-06-09T02:35:48.418Z,952.38
2018-06-09T02:36:48.392Z,952.41
2018-06-09T02:37:48.415Z,952.39
2018-06-09T02:38:48.450Z,952.39
2018-06-09T02:39:48.461Z,952.4
2018-06-09T02:40:48.584Z,952.42
2018-06-09T02:41:48.508Z,952.47
2018-06-09T02:42:48.533Z,952.47
2018-06-09T02:43:48.556Z,952.52
2018-06-09T02:44:48.578Z,952.58
2018-06-09T02:45:48.605Z,952.62
2018-06-09T02:46:48.651Z,952.64
2018-06-09T02:47:48.649Z,952.68
2018-06-09T02:48:48.676Z,952.68
2018-06-09T02:49:48.700Z,952.69
2018-06-09T02:50:48.774Z,952.65
2018-06-09T02:51:48.747Z,952.67
2018-06-09T02:52:48.772Z,952.67
2018-06-09T02:53:48.795Z,952.71
2018-06-09T02:54:48.817Z,952.72
2018-06-09T02:55:48.841Z,952.66
2018-06-09T02:56:48.866Z,952.73
2018-06-09T02:57:48.886Z,952.7
2018-06-09T02:58:48.913Z,952.71
2018-06-09T02:59:48.934Z,952.7
2018-06-09T03:00:48.957Z,952.71
2018-06-09T03:01:48.981Z,952.7
2018-06-09T03:02:49.004Z,952.67
2018-06-09T03:03:49.029Z,952.7
2018-06-09T03:04:49.055Z,952.65
2018-06-09T03:05:49.127Z,952.69
2018-06-09T03:06:49.099Z,952.68
2018-06-09T03:07:49.124Z,952.67
2018-06-09T03:08:49.150Z,952.65
2018-06-09T03:09:49.171Z,952.66
2018-06-09T03:10:49.194Z,952.64
2018-06-09T03:11:49.218Z,952.59
2018-06-09T03:12:49.241Z,952.58
2018-06-09T03:13:49.264Z,952.58
2018-06-09T03:14:49.298Z,952.56
2018-06-09T03:15:49.312Z,952.55
2018-06-09T03:16:49.335Z,952.49
2018-06-09T03:17:49.372Z,952.47
2018-06-09T03:18:49.379Z,952.44
2018-06-09T03:19:49.404Z,952.49
2018-06-09T03:20:49.476Z,952.5
2018-06-09T03:21:49.449Z,952.56
2018-06-09T03:22:49.473Z,952.56
2018-06-09T03:23:49.495Z,952.55
2018-06-09T03:24:49.519Z,952.56
2018-06-09T03:25:49.542Z,952.64
2018-06-09T03:26:49.565Z,952.69
2018-06-09T03:27:49.590Z,952.7
2018-06-09T03:28:49.612Z,952.69
2018-06-09T03:29:49.636Z,952.75
2018-06-09T03:30:49.660Z,952.75
2018-06-09T03:31:49.683Z,952.78
2018-06-09T03:32:49.704Z,952.75
2018-06-09T03:33:49.728Z,952.79
2018-06-09T03:34:49.752Z,952.78
2018-06-09T03:35:49.827Z,952.8
2018-06-09T03:36:49.799Z,952.78
2018-06-09T03:37:49.824Z,952.8
2018-06-09T03:38:49.847Z,952.81
2018-06-09T03:39:49.870Z,952.81
2018-06-09T03:40:49.892Z,952.79
2018-06-09T03:41:49.917Z,952.82
2018-06-09T03:42:49.939Z,952.78
2018-06-09T03:43:49.963Z,952.75
2018-06-09T03:44:49.987Z,952.78
2018-06-09T03:45:50.008Z,952.8
2018-06-09T03:46:50.031Z,952.8
2018-06-09T03:47:50.054Z,952.76
2018-06-09T03:48:50.112Z,952.79
2018-06-09T03:49:50.102Z,952.87
2018-06-09T03:50:50.175Z,952.8
2018-06-09T03:51:50.148Z,952.81
2018-06-09T03:52:50.171Z,952.84
2018-06-09T03:53:50.193Z,952.84
2018-06-09T03:54:50.219Z,952.87
2018-06-09T03:55:50.496Z,952.86
2018-06-09T03:56:50.270Z,952.89
2018-06-09T03:57:50.293Z,952.91
2018-06-09T03:58:50.316Z,952.91
2018-06-09T03:59:50.340Z,952.92
2018-06-09T04:00:50.369Z,952.94
2018-06-09T04:01:50.391Z,952.95
2018-06-09T04:02:50.412Z,952.91
2018-06-09T04:03:50.437Z,952.95
2018-06-09T04:04:50.460Z,952.96
2018-06-09T04:05:50.483Z,952.98
2018-06-09T04:06:50.508Z,953.01
2018-06-09T04:07:50.532Z,952.98
2018-06-09T04:08:50.608Z,953.04
2018-06-09T04:09:50.579Z,953
2018-06-09T04:10:50.611Z,953.07
2018-06-09T04:11:50.627Z,953.08
2018-06-09T04:12:50.651Z,953.1
2018-06-09T04:13:50.676Z,953.18
2018-06-09T04:14:50.701Z,953.13
2018-06-09T04:15:50.724Z,953.18
2018-06-09T04:16:50.748Z,953.17
2018-06-09T04:17:50.774Z,953.16
2018-06-09T04:18:50.797Z,953.19
2018-06-09T04:19:50.818Z,953.21
2018-06-09T04:20:50.845Z,953.24
2018-06-09T04:21:50.869Z,953.21
2018-06-09T04:22:50.892Z,953.19
2018-06-09T04:23:50.916Z,953.17
2018-06-09T04:24:50.948Z,953.18
2018-06-09T04:25:50.966Z,953.22
2018-06-09T04:26:50.988Z,953.2
2018-06-09T04:27:51.023Z,953.19
2018-06-09T04:28:51.038Z,953.2
2018-06-09T04:29:51.063Z,953.14
2018-06-09T04:30:51.087Z,953.14
2018-06-09T04:31:51.112Z,953.13
2018-06-09T04:32:51.136Z,953.12
2018-06-09T04:33:51.160Z,953.13
2018-06-09T04:34:51.185Z,953.13
2018-06-09T04:35:51.210Z,953.18
2018-06-09T04:36:51.236Z,953.16
2018-06-09T04:37:51.258Z,953.16
2018-06-09T04:38:51.283Z,953.15
2018-06-09T04:39:51.351Z,953.2
2018-06-09T04:40:51.333Z,953.25
2018-06-09T04:41:51.360Z,953.28
2018-06-09T04:42:51.380Z,953.29
2018-06-09T04:43:51.405Z,953.31
2018-06-09T04:44:51.430Z,953.34
2018-06-09T04:45:51.455Z,953.35
2018-06-09T04:46:51.480Z,953.44
2018-06-09T04:47:51.504Z,953.43
2018-06-09T04:48:51.537Z,953.45
2018-06-09T04:49:51.551Z,953.49
2018-06-09T04:50:51.575Z,953.53
2018-06-09T04:51:51.601Z,953.57
2018-06-09T04:52:51.625Z,953.61
2018-06-09T04:53:51.649Z,953.63
2018-06-09T04:54:51.674Z,953.65
2018-06-09T04:55:51.697Z,953.6
2018-06-09T04:56:51.721Z,953.61
2018-06-09T04:57:51.748Z,953.61
2018-06-09T04:58:51.773Z,953.61
2018-06-09T04:59:51.795Z,953.59
2018-06-09T05:00:51.820Z,953.55
2018-06-09T05:01:51.846Z,953.51
2018-06-09T05:02:51.870Z,953.55
2018-06-09T05:03:51.893Z,953.47
2018-06-09T05:04:51.917Z,953.54
2018-06-09T05:05:51.950Z,953.5
2018-06-09T05:06:51.970Z,953.53
2018-06-09T05:07:51.992Z,953.51
2018-06-09T05:08:52.017Z,953.51
2018-06-09T05:09:52.040Z,953.45
2018-06-09T05:10:52.064Z,953.42
2018-06-09T05:11:52.091Z,953.51
2018-06-09T05:12:52.114Z,953.54
2018-06-09T05:13:52.139Z,953.52
2018-06-09T05:14:52.178Z,953.52
2018-06-09T05:15:52.187Z,953.54
2018-06-09T05:16:52.211Z,953.59
2018-06-09T05:17:52.236Z,953.58
2018-06-09T05:18:52.258Z,953.61
2018-06-09T05:19:52.283Z,953.62
2018-06-09T05:20:52.309Z,953.61
2018-06-09T05:21:52.332Z,953.68
2018-06-09T05:22:52.356Z,953.62
2018-06-09T05:23:52.381Z,953.6
2018-06-09T05:24:52.410Z,953.62
2018-06-09T05:25:52.432Z,953.55
2018-06-09T05:26:52.456Z,953.59
2018-06-09T05:27:52.480Z,953.58
2018-06-09T05:28:52.504Z,953.52
2018-06-09T05:29:52.528Z,953.56
2018-06-09T05:30:52.553Z,953.56
2018-06-09T05:31:52.577Z,953.49
2018-06-09T05:32:52.602Z,953.5
2018-06-09T05:33:52.625Z,953.47
2018-06-09T05:34:52.652Z,953.55
2018-06-09T05:35:52.678Z,953.53
2018-06-09T05:36:52.703Z,953.55
2018-06-09T05:37:52.726Z,953.53
2018-06-09T05:38:52.750Z,953.5
2018-06-09T05:39:52.777Z,953.51
2018-06-09T05:40:52.802Z,953.55
2018-06-09T05:41:52.824Z,953.51
2018-06-09T05:42:52.851Z,953.59
2018-06-09T05:43:52.873Z,953.58
2018-06-09T05:44:52.899Z,953.62
2018-06-09T05:45:52.923Z,953.58
2018-06-09T05:46:52.947Z,953.62
2018-06-09T05:47:52.970Z,953.62
2018-06-09T05:48:52.996Z,953.58
2018-06-09T05:49:53.021Z,953.54
2018-06-09T05:50:53.045Z,953.6
2018-06-09T05:51:53.069Z,953.54
2018-06-09T05:52:53.095Z,953.57
2018-06-09T05:53:53.119Z,953.54
2018-06-09T05:54:53.144Z,953.58
2018-06-09T05:55:53.167Z,953.57
2018-06-09T05:56:53.192Z,953.58
2018-06-09T05:57:53.218Z,953.59
2018-06-09T05:58:53.242Z,953.56
2018-06-09T05:59:53.266Z,953.59
2018-06-09T06:00:53.289Z,953.57
2018-06-09T06:01:53.331Z,953.57
2018-06-09T06:02:53.344Z,953.53
2018-06-09T06:03:53.412Z,953.48
2018-06-09T06:04:53.394Z,953.49
2018-06-09T06:05:53.416Z,953.49
2018-06-09T06:06:53.442Z,953.51
2018-06-09T06:07:53.471Z,953.49
2018-06-09T06:08:53.491Z,953.44
2018-06-09T06:09:53.515Z,953.51
2018-06-09T06:10:53.540Z,953.49
2018-06-09T06:11:53.565Z,953.51
2018-06-09T06:12:53.591Z,953.48
2018-06-09T06:13:53.615Z,953.43
2018-06-09T06:14:53.640Z,953.46
2018-06-09T06:15:53.667Z,953.44
2018-06-09T06:16:53.691Z,953.46
2018-06-09T06:17:53.719Z,953.43
2018-06-09T06:18:53.742Z,953.39
2018-06-09T06:19:53.765Z,953.41
2018-06-09T06:20:53.792Z,953.44
2018-06-09T06:21:53.817Z,953.4
2018-06-09T06:22:53.844Z,953.43
2018-06-09T06:23:53.865Z,953.4
2018-06-09T06:24:53.889Z,953.45
2018-06-09T06:25:53.916Z,953.43
2018-06-09T06:26:53.941Z,953.46
2018-06-09T06:27:53.966Z,953.48
2018-06-09T06:28:53.991Z,953.43
2018-06-09T06:29:54.018Z,953.45
2018-06-09T06:30:54.042Z,953.43
2018-06-09T06:31:54.147Z,953.46
2018-06-09T06:32:54.094Z,953.44
2018-06-09T06:33:54.119Z,953.52
2018-06-09T06:34:54.145Z,953.49
2018-06-09T06:35:54.170Z,953.49
2018-06-09T06:36:54.195Z,953.43
2018-06-09T06:37:54.220Z,953.51
2018-06-09T06:38:54.244Z,953.44
2018-06-09T06:39:54.275Z,953.46
2018-06-09T06:40:54.295Z,953.46
2018-06-09T06:41:54.319Z,953.42
2018-06-09T06:42:54.345Z,953.46
2018-06-09T06:43:54.371Z,953.46
2018-06-09T06:44:54.413Z,953.52
2018-06-09T06:45:54.421Z,953.46
2018-06-09T06:46:54.446Z,953.46
2018-06-09T06:47:54.471Z,953.45
2018-06-09T06:48:54.498Z,953.44
2018-06-09T06:49:54.524Z,953.47
2018-06-09T06:50:54.551Z,953.46
2018-06-09T06:51:54.583Z,953.46
2018-06-09T06:52:54.600Z,953.47
2018-06-09T06:53:54.627Z,953.53
2018-06-09T06:54:54.653Z,953.47
2018-06-09T06:55:54.678Z,953.49
2018-06-09T06:56:54.704Z,953.54
2018-06-09T06:57:54.729Z,953.43
2018-06-09T06:58:54.753Z,953.47
2018-06-09T06:59:54.780Z,953.47
2018-06-09T07:00:54.805Z,953.48
2018-06-09T07:01:54.831Z,953.48
2018-06-09T07:02:54.857Z,953.53
2018-06-09T07:03:54.882Z,953.52
2018-06-09T07:04:54.919Z,953.53
2018-06-09T07:05:54.934Z,953.64
2018-06-09T07:06:54.959Z,953.59
2018-06-09T07:07:55.005Z,953.65
2018-06-09T07:08:55.010Z,953.67
2018-06-09T07:09:55.037Z,953.72
2018-06-09T07:10:55.064Z,953.73
2018-06-09T07:11:55.090Z,953.7
2018-06-09T07:12:55.137Z,953.73
2018-06-09T07:13:55.140Z,953.68
2018-06-09T07:14:55.165Z,953.71
2018-06-09T07:15:55.191Z,953.62
2018-06-09T07:16:55.217Z,953.71
2018-06-09T07:17:55.243Z,953.62
2018-06-09T07:18:55.268Z,953.68
2018-06-09T07:19:55.298Z,953.65
2018-06-09T07:20:55.322Z,953.68
2018-06-09T07:21:55.347Z,953.71
2018-06-09T07:22:55.372Z,953.71
2018-06-09T07:23:55.399Z,953.72
2018-06-09T07:24:55.627Z,953.74
2018-06-09T07:25:55.454Z,953.74
2018-06-09T07:26:55.478Z,953.7
2018-06-09T07:27:55.503Z,953.67
2018-06-09T07:28:55.530Z,953.66
2018-06-09T07:29:55.556Z,953.71
2018-06-09T07:30:55.587Z,953.7
2018-06-09T07:31:55.609Z,953.64
2018-06-09T07:32:55.636Z,953.69
2018-06-09T07:33:55.661Z,953.71
2018-06-09T07:34:55.687Z,953.73
2018-06-09T07:35:55.715Z,953.81
2018-06-09T07:36:55.740Z,953.76
2018-06-09T07:37:55.765Z,953.85
2018-06-09T07:38:55.797Z,953.84
2018-06-09T07:39:55.822Z,953.81
2018-06-09T07:40:55.847Z,953.87
2018-06-09T07:41:55.872Z,953.84
2018-06-09T07:42:55.899Z,953.88
2018-06-09T07:43:55.926Z,953.86
2018-06-09T07:44:55.952Z,953.87
2018-06-09T07:45:55.980Z,953.9
2018-06-09T07:46:56.007Z,953.89
2018-06-09T07:47:56.040Z,953.94
2018-06-09T07:48:56.062Z,953.91
2018-06-09T07:49:56.086Z,953.86
2018-06-09T07:50:56.114Z,953.88
2018-06-09T07:51:56.140Z,953.89
2018-06-09T07:52:56.173Z,953.97
2018-06-09T07:53:56.194Z,953.94
2018-06-09T07:54:56.221Z,953.98
2018-06-09T07:55:56.246Z,954.04
2018-06-09T07:56:56.276Z,954.04
2018-06-09T07:57:56.302Z,953.96
2018-06-09T07:58:56.329Z,954
2018-06-09T07:59:56.356Z,953.94
2018-06-09T08:00:56.384Z,953.92
2018-06-09T08:01:56.413Z,953.88
2018-06-09T08:02:56.442Z,953.92
2018-06-09T08:03:56.465Z,953.91
2018-06-09T08:04:56.495Z,953.95
2018-06-09T08:05:56.519Z,953.92
2018-06-09T08:06:56.558Z,953.97
2018-06-09T08:07:56.576Z,953.98
2018-06-09T08:08:56.613Z,953.98
2018-06-09T08:09:56.630Z,954.02
2018-06-09T08:10:56.658Z,953.99
2018-06-09T08:11:56.683Z,954.03
2018-06-09T08:12:56.711Z,953.96
2018-06-09T08:13:56.789Z,953.97
2018-06-09T08:14:56.761Z,953.97
2018-06-09T08:15:56.790Z,954
2018-06-09T08:16:56.821Z,954.12
2018-06-09T08:17:56.847Z,953.98
2018-06-09T08:18:56.873Z,953.99
2018-06-09T08:19:56.903Z,953.97
2018-06-09T08:20:56.929Z,953.9
2018-06-09T08:21:56.957Z,953.94
2018-06-09T08:22:56.985Z,953.93
2018-06-09T08:23:57.011Z,953.92
2018-06-09T08:24:57.047Z,953.9
2018-06-09T08:25:57.066Z,953.91
2018-06-09T08:26:57.094Z,953.93
2018-06-09T08:27:57.121Z,953.88
2018-06-09T08:28:57.149Z,953.91
2018-06-09T08:29:57.177Z,953.91
2018-06-09T08:30:57.209Z,953.86
2018-06-09T08:31:57.233Z,953.85
2018-06-09T08:32:57.257Z,953.86
2018-06-09T08:33:57.285Z,953.87
2018-06-09T08:34:57.318Z,953.9
2018-06-09T08:35:57.359Z,953.89
2018-06-09T08:36:57.367Z,953.9
2018-06-09T08:37:57.395Z,953.92
2018-06-09T08:38:57.431Z,953.92
2018-06-09T08:39:57.449Z,953.91
2018-06-09T08:40:57.479Z,953.98
2018-06-09T08:41:57.515Z,953.97
2018-06-09T08:42:57.532Z,953.96
2018-06-09T08:43:57.561Z,954.03
2018-06-09T08:44:57.588Z,954.04
2018-06-09T08:45:57.615Z,954.03
2018-06-09T08:46:57.642Z,954.06
2018-06-09T08:47:57.671Z,954.06
2018-06-09T08:48:57.698Z,954.1
2018-06-09T08:49:57.725Z,954.07
2018-06-09T08:50:57.753Z,954.07
2018-06-09T08:51:57.781Z,954.06
2018-06-09T08:52:57.807Z,954.06
2018-06-09T08:53:57.835Z,954.05
2018-06-09T08:54:57.863Z,954.07
2018-06-09T08:55:57.891Z,954.05
2018-06-09T08:56:57.926Z,954.04
2018-06-09T08:57:57.945Z,954.08
2018-06-09T08:58:57.974Z,954.06
2018-06-09T08:59:58.002Z,954.08
2018-06-09T09:00:58.029Z,954.13
2018-06-09T09:01:58.055Z,954.13
2018-06-09T09:02:58.084Z,954.16
2018-06-09T09:03:58.112Z,954.12
2018-06-09T09:04:58.139Z,954.12
2018-06-09T09:05:58.167Z,954.07
2018-06-09T09:06:58.195Z,954.1
2018-06-09T09:07:58.219Z,954.08
2018-06-09T09:08:58.249Z,954.02
2018-06-09T09:09:58.278Z,954.08
2018-06-09T09:10:58.306Z,954.09
2018-06-09T09:11:58.341Z,954.05
2018-06-09T09:12:58.362Z,954.03
2018-06-09T09:13:58.391Z,954.04
2018-06-09T09:14:58.423Z,954.05
2018-06-09T09:15:58.448Z,954.09
2018-06-09T09:16:58.479Z,954.13
2018-06-09T09:17:58.508Z,954.14
2018-06-09T09:18:58.537Z,954.12
2018-06-09T09:19:58.566Z,954.2
2018-06-09T09:20:58.620Z,954.15
2018-06-09T09:21:58.624Z,954.11
2018-06-09T09:22:58.653Z,954.14
2018-06-09T09:23:58.683Z,954.15
2018-06-09T09:24:58.713Z,954.19
2018-06-09T09:25:58.742Z,954.18
2018-06-09T09:26:58.773Z,954.13
2018-06-09T09:27:58.819Z,954.13
2018-06-09T09:28:58.835Z,954.11
2018-06-09T09:29:58.862Z,954.07
2018-06-09T09:30:58.888Z,954.07
2018-06-09T09:31:58.920Z,954.08
2018-06-09T09:32:58.948Z,954.06
2018-06-09T09:33:58.976Z,954.02
2018-06-09T09:34:59.007Z,953.97
2018-06-09T09:35:59.036Z,954.02
2018-06-09T09:36:59.066Z,954
2018-06-09T09:37:59.094Z,954.03
2018-06-09T09:38:59.123Z,953.98
2018-06-09T09:39:59.153Z,954
2018-06-09T09:40:59.182Z,954.04
2018-06-09T09:41:59.211Z,954.04
2018-06-09T09:42:59.240Z,954.03
2018-06-09T09:43:59.269Z,954.04
2018-06-09T09:44:59.297Z,954.04
2018-06-09T09:45:59.327Z,954.03
2018-06-09T09:46:59.356Z,954.07
2018-06-09T09:47:59.384Z,954.04
2018-06-09T09:48:59.412Z,954
2018-06-09T09:49:59.441Z,954
2018-06-09T09:50:59.472Z,954
2018-06-09T09:51:59.502Z,954.1
2018-06-09T09:52:59.528Z,954
2018-06-09T09:53:59.559Z,954.07
2018-06-09T09:54:59.620Z,954.03
2018-06-09T09:55:59.616Z,954.03
2018-06-09T09:56:59.645Z,954.06
2018-06-09T09:57:59.673Z,954.06
2018-06-09T09:58:59.704Z,954.06
2018-06-09T09:59:59.733Z,954.06
2018-06-09T10:00:59.770Z,954.04
2018-06-09T10:01:59.791Z,954
2018-06-09T10:02:59.822Z,953.96
2018-06-09T10:03:59.852Z,954
2018-06-09T10:04:59.881Z,953.96
2018-06-09T10:05:59.912Z,953.98
2018-06-09T10:06:59.940Z,954.01
2018-06-09T10:07:59.969Z,954.07
2018-06-09T10:09:00.001Z,954.06
2018-06-09T10:10:00.047Z,954.07
2018-06-09T10:11:00.059Z,954.04
2018-06-09T10:12:00.091Z,954.06
2018-06-09T10:13:00.120Z,954.09
2018-06-09T10:14:00.149Z,954.08
2018-06-09T10:15:00.182Z,954.13
2018-06-09T10:16:00.213Z,954.04
2018-06-09T10:17:00.245Z,954.08
2018-06-09T10:18:00.290Z,954.04
2018-06-09T10:19:00.308Z,954
2018-06-09T10:20:00.339Z,954
2018-06-09T10:21:00.372Z,954.05
2018-06-09T10:22:00.402Z,953.96
2018-06-09T10:23:00.433Z,953.97
2018-06-09T10:24:00.468Z,953.93
2018-06-09T10:25:00.496Z,953.77
2018-06-09T10:26:00.529Z,953.88
2018-06-09T10:27:00.561Z,953.83
2018-06-09T10:28:00.590Z,953.82
2018-06-09T10:29:00.621Z,953.83
2018-06-09T10:30:00.653Z,953.81
2018-06-09T10:31:00.685Z,953.81
2018-06-09T10:32:00.715Z,953.81
2018-06-09T10:33:00.749Z,953.76
2018-06-09T10:34:00.780Z,953.77
2018-06-09T10:35:00.812Z,953.78
2018-06-09T10:36:00.843Z,953.7
2018-06-09T10:37:00.878Z,953.74
2018-06-09T10:38:00.910Z,953.66
2018-06-09T10:39:00.942Z,953.69
2018-06-09T10:40:00.974Z,953.67
2018-06-09T10:41:01.006Z,953.71
2018-06-09T10:42:01.038Z,953.65
2018-06-09T10:43:01.071Z,953.73
2018-06-09T10:44:01.102Z,953.76
2018-06-09T10:45:01.134Z,953.77
2018-06-09T10:46:01.172Z,953.76
2018-06-09T10:47:01.197Z,953.82
2018-06-09T10:48:01.230Z,953.81
2018-06-09T10:49:01.260Z,953.78
2018-06-09T10:50:01.293Z,953.83
2018-06-09T10:51:01.324Z,953.79
2018-06-09T10:52:01.356Z,953.83
2018-06-09T10:53:01.433Z,953.77
2018-06-09T10:54:01.419Z,953.84
2018-06-09T10:55:01.456Z,953.72
2018-06-09T10:56:01.481Z,953.73
2018-06-09T10:57:01.511Z,953.74
2018-06-09T10:58:01.542Z,953.75
2018-06-09T10:59:01.577Z,953.72
2018-06-09T11:00:01.605Z,953.71
2018-06-09T11:01:01.645Z,953.55
2018-06-09T11:02:01.668Z,953.55
2018-06-09T11:03:01.701Z,953.52
2018-06-09T11:04:01.735Z,953.54
2018-06-09T11:05:01.766Z,953.61
2018-06-09T11:06:01.798Z,953.63
2018-06-09T11:07:01.828Z,953.63
2018-06-09T11:08:01.862Z,953.58
2018-06-09T11:09:01.893Z,953.61
2018-06-09T11:10:01.988Z,953.65
2018-06-09T11:11:01.958Z,953.62
2018-06-09T11:12:01.989Z,953.56
2018-06-09T11:13:02.027Z,953.6
2018-06-09T11:14:02.055Z,953.61
2018-06-09T11:15:02.085Z,953.65
2018-06-09T11:16:02.117Z,953.57
2018-06-09T11:17:02.163Z,953.58
2018-06-09T11:18:02.184Z,953.61
2018-06-09T11:19:02.217Z,953.61
2018-06-09T11:20:02.249Z,953.56
2018-06-09T11:21:02.282Z,953.65
2018-06-09T11:22:02.315Z,953.64
2018-06-09T11:23:02.348Z,953.58
2018-06-09T11:24:02.382Z,953.56
2018-06-09T11:25:02.415Z,953.56
2018-06-09T11:26:02.445Z,953.6
2018-06-09T11:27:02.481Z,953.56
2018-06-09T11:28:02.511Z,953.59
2018-06-09T11:29:02.544Z,953.6
2018-06-09T11:30:02.577Z,953.59
2018-06-09T11:31:02.609Z,953.63
2018-06-09T11:32:02.641Z,953.6
2018-06-09T11:33:02.674Z,953.62
2018-06-09T11:34:02.708Z,953.56
2018-06-09T11:35:02.738Z,953.63
2018-06-09T11:36:02.771Z,953.63
2018-06-09T11:37:02.801Z,953.6
2018-06-09T11:38:02.834Z,953.58
2018-06-09T11:39:02.866Z,953.6
2018-06-09T11:40:02.898Z,953.57
2018-06-09T11:41:02.935Z,953.62
2018-06-09T11:42:02.964Z,953.57
2018-06-09T11:43:02.996Z,953.6
2018-06-09T11:44:03.031Z,953.61
2018-06-09T11:45:03.065Z,953.58
2018-06-09T11:46:03.098Z,953.64
2018-06-09T11:47:03.135Z,953.57
2018-06-09T11:48:03.164Z,953.54
2018-06-09T11:49:03.197Z,953.53
2018-06-09T11:50:03.229Z,953.54
2018-06-09T11:51:03.264Z,953.52
2018-06-09T11:52:03.300Z,953.52
2018-06-09T11:53:03.332Z,953.5
2018-06-09T11:54:03.367Z,953.52
2018-06-09T11:55:03.402Z,953.5
2018-06-09T11:56:03.437Z,953.52
2018-06-09T11:57:03.471Z,953.48
2018-06-09T11:58:03.507Z,953.48
2018-06-09T11:59:03.543Z,953.49
2018-06-09T12:00:03.577Z,953.48
2018-06-09T12:01:03.614Z,953.55
2018-06-09T12:02:03.649Z,953.54
2018-06-09T12:03:03.689Z,953.47
2018-06-09T12:04:03.720Z,953.43
2018-06-09T12:05:03.754Z,953.51
2018-06-09T12:06:03.791Z,953.49
2018-06-09T12:07:03.826Z,953.48
2018-06-09T12:08:03.860Z,953.46
2018-06-09T12:09:03.897Z,953.48
2018-06-09T12:10:03.932Z,953.52
2018-06-09T12:11:04.006Z,953.52
2018-06-09T12:12:04.012Z,953.52
2018-06-09T12:13:04.039Z,953.46
2018-06-09T12:14:04.076Z,953.47
2018-06-09T12:15:04.111Z,953.44
2018-06-09T12:16:04.148Z,953.5
2018-06-09T12:17:04.184Z,953.51
2018-06-09T12:18:04.220Z,953.45
2018-06-09T12:19:04.256Z,953.44
2018-06-09T12:20:04.294Z,953.31
2018-06-09T12:21:04.329Z,953.32
2018-06-09T12:22:04.365Z,953.33
2018-06-09T12:23:04.400Z,953.3
2018-06-09T12:24:04.460Z,953.31
2018-06-09T12:25:04.563Z,953.29
2018-06-09T12:26:04.515Z,953.32
2018-06-09T12:27:04.545Z,953.32
2018-06-09T12:28:04.592Z,953.31
2018-06-09T12:29:04.620Z,953.31
2018-06-09T12:30:04.656Z,953.32
2018-06-09T12:31:04.693Z,953.3
2018-06-09T12:32:04.746Z,953.32